createdAt,value
2018-12-15T00:02:10.107Z,84.30
2018-12-15T00:04:38.536Z,83.64
2018-12-15T00:07:06.994Z,83.99
2018-12-15T00:09:35.368Z,84.12
2018-12-15T00:12:03.800Z,83.62
2018-12-15T00:14:32.341Z,84.12
2018-12-15T00:17:05.709Z,83.57
2018-12-15T00:19:31.764Z,83.44
2018-12-15T00:22:00.159Z,83.57
2018-12-15T00:24:28.565Z,83.62
2018-12-15T00:26:56.972Z,83.61
2018-12-15T00:29:25.380Z,83.81
2018-12-15T00:31:54.698Z,83.78
2018-12-15T00:34:23.710Z,83.61
2018-12-15T00:36:52.094Z,83.85
2018-12-15T00:39:21.082Z,83.86
2018-12-15T00:41:49.472Z,84.07
2018-12-15T00:44:18.036Z,83.84
2018-12-15T00:46:46.996Z,83.74
2018-12-15T00:49:15.465Z,83.74
2018-12-15T00:51:43.899Z,84.04
2018-12-15T00:54:12.638Z,84.07
2018-12-15T00:56:41.704Z,83.36
2018-12-15T00:59:10.129Z,83.70
2018-12-15T01:01:38.512Z,83.55
2018-12-15T01:04:06.922Z,83.37
2018-12-15T01:06:35.304Z,83.05
2018-12-15T01:09:05.037Z,83.04
2018-12-15T01:11:33.884Z,83.29
2018-12-15T01:14:02.267Z,82.81
2018-12-15T01:16:30.652Z,83.02
2018-12-15T01:18:59.132Z,83.54
2018-12-15T01:21:27.560Z,83.92
2018-12-15T01:23:55.965Z,84.09
2018-12-15T01:26:24.380Z,84.09
2018-12-15T01:28:52.769Z,83.71
2018-12-15T01:31:21.141Z,84.34
2018-12-15T01:33:49.637Z,83.94
2018-12-15T01:36:18.040Z,84.46
2018-12-15T01:38:46.419Z,84.17
2018-12-15T01:41:14.968Z,84.71
2018-12-15T01:43:43.817Z,84.60
2018-12-15T01:46:12.191Z,84.25
2018-12-15T01:48:40.605Z,84.19
2018-12-15T01:51:09.052Z,84.63
2018-12-15T01:53:37.446Z,84.14
2018-12-15T01:56:06.313Z,84.77
2018-12-15T01:58:34.797Z,84.13
2018-12-15T02:01:03.274Z,84.36
2018-12-15T02:03:31.708Z,83.92
2018-12-15T02:06:00.120Z,84.21
2018-12-15T02:08:28.528Z,84.14
2018-12-15T02:10:56.935Z,84.16
2018-12-15T02:13:25.325Z,84.01
2018-12-15T02:15:53.734Z,84.03
2018-12-15T02:18:22.143Z,84.04
2018-12-15T02:20:50.547Z,83.62
2018-12-15T02:23:18.938Z,83.80
2018-12-15T02:25:47.361Z,83.91
2018-12-15T02:28:15.773Z,83.55
2018-12-15T02:30:44.413Z,84.09
2018-12-15T02:33:12.825Z,84.10
2018-12-15T02:35:41.231Z,83.27
2018-12-15T02:38:09.613Z,83.32
2018-12-15T02:40:38.070Z,83.85
2018-12-15T02:43:06.457Z,83.71
2018-12-15T02:45:34.959Z,83.42
2018-12-15T02:48:03.623Z,83.58
2018-12-15T02:50:34.993Z,83.11
2018-12-15T02:53:03.413Z,83.08
2018-12-15T02:55:31.807Z,83.03
2018-12-15T02:58:00.485Z,83.16
2018-12-15T03:00:29.156Z,83.31
2018-12-15T03:02:57.558Z,83.62
2018-12-15T03:05:25.977Z,83.58
2018-12-15T03:07:54.397Z,83.61
2018-12-15T03:10:22.785Z,83.84
2018-12-15T03:12:52.181Z,83.71
2018-12-15T03:15:20.580Z,83.71
2018-12-15T03:17:49.473Z,83.37
2018-12-15T03:20:17.864Z,83.67
2018-12-15T03:22:47.336Z,83.69
2018-12-15T03:25:15.749Z,83.78
2018-12-15T03:27:44.148Z,83.53
2018-12-15T03:30:12.615Z,84.03
2018-12-15T03:32:41.258Z,83.28
2018-12-15T03:35:09.800Z,84.36
2018-12-15T03:37:38.672Z,83.77
2018-12-15T03:40:07.067Z,83.86
2018-12-15T03:42:35.772Z,84.31
2018-12-15T03:45:04.778Z,84.59
2018-12-15T03:47:33.179Z,84.15
2018-12-15T03:50:01.728Z,84.39
2018-12-15T03:52:30.170Z,84.25
2018-12-15T03:54:59.544Z,84.33
2018-12-15T03:57:28.473Z,84.29
2018-12-15T03:59:57.128Z,84.50
2018-12-15T04:02:25.980Z,84.46
2018-12-15T04:04:54.791Z,84.50
2018-12-15T04:07:23.248Z,84.31
2018-12-15T04:09:51.861Z,84.79
2018-12-15T04:12:20.275Z,84.82
2018-12-15T04:14:48.764Z,84.95
2018-12-15T04:17:17.153Z,84.39
2018-12-15T04:19:45.543Z,84.44
2018-12-15T04:22:20.020Z,84.59
2018-12-15T04:24:48.423Z,85.01
2018-12-15T04:27:16.805Z,84.72
2018-12-15T04:29:45.241Z,84.87
2018-12-15T04:32:13.620Z,85.00
2018-12-15T04:34:42.028Z,84.70
2018-12-15T04:37:10.460Z,84.43
2018-12-15T04:39:38.989Z,84.60
2018-12-15T04:42:07.470Z,85.39
2018-12-15T04:44:35.889Z,85.24
2018-12-15T04:47:04.534Z,85.43
2018-12-15T04:49:32.909Z,85.50
2018-12-15T04:52:01.310Z,85.04
2018-12-15T04:54:29.806Z,84.87
2018-12-15T04:56:58.202Z,85.60
2018-12-15T04:59:26.626Z,85.31
2018-12-15T05:01:55.287Z,85.65
2018-12-15T05:04:24.032Z,85.40
2018-12-15T05:06:52.517Z,85.37
2018-12-15T05:09:20.896Z,85.42
2018-12-15T05:11:49.284Z,85.27
2018-12-15T05:14:18.073Z,84.98
2018-12-15T05:16:46.498Z,85.01
2018-12-15T05:19:14.886Z,85.20
2018-12-15T05:21:43.368Z,84.79
2018-12-15T05:24:11.765Z,85.62
2018-12-15T05:26:40.831Z,85.03
2018-12-15T05:29:09.249Z,85.39
2018-12-15T05:31:37.663Z,85.11
2018-12-15T05:34:06.046Z,85.47
2018-12-15T05:36:34.464Z,85.44
2018-12-15T05:39:02.970Z,85.41
2018-12-15T05:41:31.397Z,85.38
2018-12-15T05:43:59.879Z,85.40
2018-12-15T05:46:28.261Z,85.52
2018-12-15T05:48:56.754Z,85.32
2018-12-15T05:51:25.186Z,84.79
2018-12-15T05:53:53.642Z,85.46
2018-12-15T05:56:22.028Z,85.49
2018-12-15T05:58:51.948Z,85.00
2018-12-15T06:01:20.345Z,84.90
2018-12-15T06:03:48.905Z,85.52
2018-12-15T06:06:17.461Z,85.38
2018-12-15T06:08:45.855Z,84.65
2018-12-15T06:11:14.231Z,84.88
2018-12-15T06:13:42.644Z,85.31
2018-12-15T06:16:11.128Z,85.08
2018-12-15T06:18:39.532Z,85.14
2018-12-15T06:21:08.009Z,84.78
2018-12-15T06:23:36.454Z,85.28
2018-12-15T06:26:04.983Z,84.65
2018-12-15T06:28:33.572Z,84.55
2018-12-15T06:31:02.005Z,84.81
2018-12-15T06:33:30.390Z,84.77
2018-12-15T06:35:58.807Z,84.66
2018-12-15T06:38:27.184Z,84.65
2018-12-15T06:40:55.585Z,84.50
2018-12-15T06:43:24.557Z,85.58
2018-12-15T06:45:52.957Z,85.31
2018-12-15T06:48:21.428Z,84.74
2018-12-15T06:50:49.874Z,84.75
2018-12-15T06:53:18.274Z,85.41
2018-12-15T06:55:46.704Z,85.02
2018-12-15T06:58:15.135Z,84.91
2018-12-15T07:00:43.564Z,84.58
2018-12-15T07:03:11.957Z,84.96
2018-12-15T07:05:40.660Z,84.98
2018-12-15T07:08:09.196Z,85.56
2018-12-15T07:10:37.563Z,84.81
2018-12-15T07:13:05.978Z,84.70
2018-12-15T07:15:34.385Z,84.94
2018-12-15T07:18:03.017Z,85.52
2018-12-15T07:20:31.445Z,84.83
2018-12-15T07:22:59.903Z,84.64
2018-12-15T07:25:28.612Z,85.12
2018-12-15T07:27:57.140Z,84.75
2018-12-15T07:30:25.849Z,85.20
2018-12-15T07:32:54.829Z,84.96
2018-12-15T07:35:23.308Z,84.71
2018-12-15T07:37:51.705Z,85.21
2018-12-15T07:40:20.358Z,85.21
2018-12-15T07:42:48.791Z,85.47
2018-12-15T07:45:17.331Z,84.87
2018-12-15T07:47:45.710Z,85.40
2018-12-15T07:50:14.130Z,85.06
2018-12-15T07:52:42.516Z,85.43
2018-12-15T07:55:10.924Z,85.41
2018-12-15T07:57:39.362Z,84.93
2018-12-15T08:00:09.262Z,85.15
2018-12-15T08:02:38.005Z,84.77
2018-12-15T08:05:07.180Z,84.94
2018-12-15T08:07:35.926Z,84.76
2018-12-15T08:10:05.679Z,84.76
2018-12-15T08:12:39.478Z,85.09
2018-12-15T08:15:09.245Z,85.12
2018-12-15T08:17:37.685Z,84.74
2018-12-15T08:20:08.867Z,85.28
2018-12-15T08:22:37.388Z,85.04
2018-12-15T08:25:06.944Z,84.87
2018-12-15T08:27:35.360Z,85.32
2018-12-15T08:30:04.465Z,85.12
2018-12-15T08:32:32.998Z,84.73
2018-12-15T08:35:01.736Z,85.16
2018-12-15T08:37:30.122Z,84.85
2018-12-15T08:39:58.538Z,84.96
2018-12-15T08:42:27.091Z,85.07
2018-12-15T08:44:55.595Z,85.04
2018-12-15T08:47:24.877Z,85.19
2018-12-15T08:49:56.266Z,85.20
2018-12-15T08:52:24.651Z,84.74
2018-12-15T08:54:53.800Z,85.09
2018-12-15T08:57:25.339Z,85.03
2018-12-15T08:59:54.646Z,85.05
2018-12-15T09:02:23.128Z,84.94
2018-12-15T09:04:53.658Z,84.64
2018-12-15T09:07:22.193Z,85.28
2018-12-15T09:09:50.819Z,85.13
2018-12-15T09:12:19.442Z,84.61
2018-12-15T09:14:47.892Z,85.36
2018-12-15T09:17:16.276Z,84.46
2018-12-15T09:19:44.749Z,84.99
2018-12-15T09:22:13.175Z,84.86
2018-12-15T09:24:41.600Z,84.94
2018-12-15T09:27:10.022Z,84.85
2018-12-15T09:29:38.524Z,84.89
2018-12-15T09:32:07.052Z,84.54
2018-12-15T09:34:36.266Z,84.63
2018-12-15T09:37:05.001Z,85.17
2018-12-15T09:39:33.457Z,85.09
2018-12-15T09:42:01.902Z,84.49
2018-12-15T09:44:31.595Z,84.40
2018-12-15T09:47:06.383Z,84.68
2018-12-15T09:49:34.817Z,84.81
2018-12-15T09:52:03.385Z,84.61
2018-12-15T09:54:31.802Z,84.92
2018-12-15T09:57:00.712Z,84.55
2018-12-15T09:59:29.270Z,84.85
2018-12-15T10:01:58.377Z,84.69
2018-12-15T10:04:26.841Z,84.91
2018-12-15T10:06:55.232Z,84.85
2018-12-15T10:09:23.741Z,84.59
2018-12-15T10:11:52.326Z,84.31
2018-12-15T10:14:20.823Z,84.18
2018-12-15T10:16:49.232Z,84.75
2018-12-15T10:19:24.089Z,84.39
2018-12-15T10:21:48.205Z,84.56
2018-12-15T10:24:16.595Z,84.20
2018-12-15T10:26:44.993Z,84.49
2018-12-15T10:29:18.431Z,84.12
2018-12-15T10:31:52.392Z,84.84
2018-12-15T10:34:21.004Z,84.67
2018-12-15T10:36:49.816Z,84.53
2018-12-15T10:39:18.278Z,84.54
2018-12-15T10:41:46.868Z,84.46
2018-12-15T10:44:15.268Z,84.82
2018-12-15T10:46:43.896Z,84.64
2018-12-15T10:49:12.311Z,84.62
2018-12-15T10:51:40.918Z,84.45
2018-12-15T10:54:09.456Z,84.10
2018-12-15T10:56:37.926Z,84.35
2018-12-15T10:59:06.675Z,84.50
2018-12-15T11:01:36.769Z,84.36
2018-12-15T11:04:06.449Z,84.16
2018-12-15T11:06:34.888Z,84.37
2018-12-15T11:09:04.326Z,84.52
2018-12-15T11:11:32.819Z,84.31
2018-12-15T11:14:01.489Z,84.12
2018-12-15T11:16:30.076Z,83.98
2018-12-15T11:18:58.455Z,84.02
2018-12-15T11:21:26.841Z,83.79
2018-12-15T11:23:56.189Z,84.10
2018-12-15T11:26:24.589Z,83.80
2018-12-15T11:28:53.030Z,84.16
2018-12-15T11:31:25.132Z,83.84
2018-12-15T11:33:56.662Z,83.69
2018-12-15T11:36:25.493Z,84.03
2018-12-15T11:38:58.122Z,84.41
2018-12-15T11:41:26.578Z,83.84
2018-12-15T11:43:54.982Z,83.82
2018-12-15T11:46:23.480Z,84.40
2018-12-15T11:48:51.944Z,83.84
2018-12-15T11:51:20.381Z,84.21
2018-12-15T11:53:48.813Z,83.81
2018-12-15T11:56:19.327Z,84.07
2018-12-15T11:58:48.438Z,84.07
2018-12-15T12:01:16.955Z,84.15
2018-12-15T12:03:45.631Z,83.83
2018-12-15T12:06:14.111Z,83.74
2018-12-15T12:08:42.544Z,83.70
2018-12-15T12:11:10.989Z,83.53
2018-12-15T12:13:39.392Z,83.91
2018-12-15T12:16:07.936Z,83.43
2018-12-15T12:18:36.923Z,83.84
2018-12-15T12:21:05.457Z,84.06
2018-12-15T12:23:33.949Z,83.84
2018-12-15T12:26:02.530Z,83.79
2018-12-15T12:28:31.697Z,83.49
2018-12-15T12:31:00.129Z,83.94
2018-12-15T12:33:28.612Z,83.70
2018-12-15T12:35:57.017Z,83.40
2018-12-15T12:38:25.509Z,83.60
2018-12-15T12:40:54.178Z,84.08
2018-12-15T12:43:23.418Z,83.68
2018-12-15T12:45:52.490Z,84.03
2018-12-15T12:48:21.014Z,83.78
2018-12-15T12:50:49.398Z,83.90
2018-12-15T12:53:17.810Z,83.74
2018-12-15T12:55:46.389Z,83.65
2018-12-15T12:58:14.785Z,83.46
2018-12-15T13:00:43.321Z,83.77
2018-12-15T13:03:11.752Z,83.48
2018-12-15T13:05:40.152Z,83.38
2018-12-15T13:08:08.544Z,83.69
2018-12-15T13:10:37.081Z,83.99
2018-12-15T13:13:05.461Z,83.56
2018-12-15T13:15:34.011Z,83.69
2018-12-15T13:18:02.608Z,83.59
2018-12-15T13:20:31.257Z,83.40
2018-12-15T13:22:59.683Z,83.45
2018-12-15T13:25:28.095Z,83.66
2018-12-15T13:27:56.484Z,84.16
2018-12-15T13:30:25.164Z,83.70
2018-12-15T13:32:53.676Z,83.51
2018-12-15T13:35:22.321Z,83.71
2018-12-15T13:37:50.990Z,83.44
2018-12-15T13:40:19.506Z,84.05
2018-12-15T13:42:47.932Z,83.87
2018-12-15T13:45:16.312Z,83.96
2018-12-15T13:47:44.992Z,83.37
2018-12-15T13:50:17.529Z,84.00
2018-12-15T13:52:46.217Z,84.06
2018-12-15T13:55:14.785Z,83.69
2018-12-15T13:57:43.395Z,83.67
2018-12-15T14:00:11.953Z,83.88
2018-12-15T14:02:40.364Z,83.96
2018-12-15T14:05:08.914Z,83.68
2018-12-15T14:07:37.857Z,83.32
2018-12-15T14:10:06.571Z,84.13
2018-12-15T14:12:35.054Z,83.66
2018-12-15T14:15:03.843Z,83.73
2018-12-15T14:17:32.221Z,83.61
2018-12-15T14:20:00.826Z,84.07
2018-12-15T14:22:29.971Z,83.87
2018-12-15T14:24:58.397Z,83.84
2018-12-15T14:27:26.796Z,84.04
2018-12-15T14:29:55.225Z,83.61
2018-12-15T14:32:23.601Z,83.71
2018-12-15T14:34:54.964Z,83.63
2018-12-15T14:37:23.424Z,83.54
2018-12-15T14:39:51.832Z,83.98
2018-12-15T14:42:20.237Z,83.45
2018-12-15T14:44:49.750Z,83.59
2018-12-15T14:47:18.150Z,83.45
2018-12-15T14:49:46.599Z,84.05
2018-12-15T14:52:15.041Z,83.46
2018-12-15T14:54:43.500Z,83.58
2018-12-15T14:57:11.903Z,83.42
2018-12-15T14:59:50.472Z,83.45
2018-12-15T15:02:18.900Z,84.00
2018-12-15T15:04:47.291Z,83.60
2018-12-15T15:07:15.723Z,83.94
2018-12-15T15:09:44.553Z,83.72
2018-12-15T15:12:13.133Z,83.67
2018-12-15T15:14:41.661Z,83.91
2018-12-15T15:17:10.063Z,83.95
2018-12-15T15:19:38.456Z,83.34
2018-12-15T15:22:07.158Z,83.73
2018-12-15T15:24:35.776Z,83.63
2018-12-15T15:27:04.429Z,83.55
2018-12-15T15:29:32.868Z,83.14
2018-12-15T15:32:02.009Z,83.57
2018-12-15T15:34:30.393Z,83.15
2018-12-15T15:36:58.842Z,83.58
2018-12-15T15:39:27.509Z,83.17
2018-12-15T15:41:55.996Z,83.40
2018-12-15T15:44:24.457Z,83.62
2018-12-15T15:46:52.940Z,83.69
2018-12-15T15:49:21.376Z,83.14
2018-12-15T15:51:49.793Z,83.66
2018-12-15T15:54:18.289Z,83.25
2018-12-15T15:56:46.771Z,83.79
2018-12-15T15:59:15.456Z,83.32
2018-12-15T16:01:44.089Z,83.51
2018-12-15T16:04:12.571Z,83.24
2018-12-15T16:06:41.000Z,83.73
2018-12-15T16:09:10.280Z,83.62
2018-12-15T16:11:39.281Z,83.15
2018-12-15T16:14:07.696Z,83.18
2018-12-15T16:16:36.868Z,83.44
2018-12-15T16:19:05.366Z,83.29
2018-12-15T16:21:33.845Z,83.33
2018-12-15T16:24:02.853Z,83.30
2018-12-15T16:26:31.336Z,83.43
2018-12-15T16:29:00.297Z,83.29
2018-12-15T16:31:28.935Z,83.12
2018-12-15T16:33:57.531Z,83.01
2018-12-15T16:36:25.979Z,83.01
2018-12-15T16:38:54.668Z,83.27
2018-12-15T16:41:23.121Z,83.60
2018-12-15T16:43:51.686Z,83.58
2018-12-15T16:46:20.792Z,83.30
2018-12-15T16:48:49.224Z,82.95
2018-12-15T16:51:17.743Z,83.39
2018-12-15T16:53:46.478Z,83.52
2018-12-15T16:56:15.323Z,83.46
2018-12-15T16:58:43.850Z,82.78
2018-12-15T17:01:12.847Z,83.11
2018-12-15T17:03:41.248Z,83.00
2018-12-15T17:06:09.828Z,83.34
2018-12-15T17:08:38.589Z,83.12
2018-12-15T17:11:06.977Z,82.90
2018-12-15T17:13:35.825Z,83.24
2018-12-15T17:16:04.953Z,83.46
2018-12-15T17:18:33.357Z,82.80
2018-12-15T17:21:02.128Z,83.25
2018-12-15T17:23:30.940Z,82.88
2018-12-15T17:26:00.669Z,83.06
2018-12-15T17:28:30.812Z,83.30
2018-12-15T17:31:00.946Z,83.14
2018-12-15T17:33:29.392Z,82.92
2018-12-15T17:35:58.017Z,83.56
2018-12-15T17:38:27.158Z,83.16
2018-12-15T17:40:55.585Z,83.24
2018-12-15T17:43:24.596Z,83.22
2018-12-15T17:45:53.479Z,83.26
2018-12-15T17:48:23.905Z,83.38
2018-12-15T17:50:54.047Z,83.35
2018-12-15T17:53:22.541Z,83.45
2018-12-15T17:55:50.938Z,82.95
2018-12-15T17:58:19.424Z,83.64
2018-12-15T18:00:48.361Z,83.32
2018-12-15T18:03:17.514Z,83.14
2018-12-15T18:05:47.302Z,82.83
2018-12-15T18:08:16.614Z,83.21
2018-12-15T18:10:45.069Z,83.41
2018-12-15T18:13:14.112Z,83.39
2018-12-15T18:15:42.768Z,83.57
2018-12-15T18:18:11.181Z,82.88
2018-12-15T18:20:39.617Z,83.10
2018-12-15T18:23:08.368Z,83.50
2018-12-15T18:25:36.907Z,83.37
2018-12-15T18:28:05.784Z,83.19
2018-12-15T18:30:35.043Z,83.65
2018-12-15T18:33:03.574Z,82.85
2018-12-15T18:35:33.645Z,83.01
2018-12-15T18:38:03.011Z,83.60
2018-12-15T18:40:31.484Z,82.98
2018-12-15T18:43:00.350Z,83.03
2018-12-15T18:45:28.997Z,83.43
2018-12-15T18:47:57.468Z,83.61
2018-12-15T18:50:26.493Z,83.50
2018-12-15T18:52:55.216Z,83.65
2018-12-15T18:55:23.621Z,83.10
2018-12-15T18:57:52.482Z,83.05
2018-12-15T19:00:20.979Z,83.80
2018-12-15T19:02:49.857Z,83.46
2018-12-15T19:05:18.344Z,83.16
2018-12-15T19:07:46.959Z,83.65
2018-12-15T19:10:17.619Z,83.26
2018-12-15T19:12:46.174Z,83.22
2018-12-15T19:15:14.842Z,83.82
2018-12-15T19:17:43.248Z,83.42
2018-12-15T19:20:11.845Z,83.69
2018-12-15T19:22:40.804Z,83.94
2018-12-15T19:25:09.427Z,83.91
2018-12-15T19:27:38.008Z,83.59
2018-12-15T19:30:07.592Z,83.55
2018-12-15T19:32:36.125Z,83.59
2018-12-15T19:35:05.600Z,83.27
2018-12-15T19:37:34.200Z,83.87
2018-12-15T19:40:02.674Z,83.86
2018-12-15T19:42:35.292Z,83.72
2018-12-15T19:45:05.619Z,83.41
2018-12-15T19:47:34.212Z,83.10
2018-12-15T19:50:02.923Z,83.81
2018-12-15T19:52:32.567Z,83.87
2018-12-15T19:55:01.101Z,83.72
2018-12-15T19:57:29.684Z,83.48
2018-12-15T19:59:58.112Z,83.30
2018-12-15T20:02:26.625Z,83.72
2018-12-15T20:04:55.333Z,83.25
2018-12-15T20:07:23.878Z,83.39
2018-12-15T20:09:52.369Z,83.50
2018-12-15T20:12:21.012Z,83.58
2018-12-15T20:14:50.057Z,83.80
2018-12-15T20:17:19.094Z,83.61
2018-12-15T20:19:49.173Z,83.56
2018-12-15T20:22:17.881Z,83.33
2018-12-15T20:24:46.774Z,83.74
2018-12-15T20:27:16.674Z,83.58
2018-12-15T20:29:45.613Z,83.51
2018-12-15T20:32:14.430Z,83.58
2018-12-15T20:34:43.129Z,84.21
2018-12-15T20:37:12.012Z,83.81
2018-12-15T20:39:40.445Z,84.18
2018-12-15T20:42:09.257Z,83.99
2018-12-15T20:44:41.719Z,84.28
2018-12-15T20:47:08.349Z,84.29
2018-12-15T20:49:36.988Z,84.43
2018-12-15T20:52:05.419Z,84.41
2018-12-15T20:54:34.474Z,84.26
2018-12-15T20:57:03.066Z,84.21
2018-12-15T20:59:31.473Z,84.42
2018-12-15T21:02:00.036Z,84.31
2018-12-15T21:04:28.593Z,84.48
2018-12-15T21:06:57.003Z,84.72
2018-12-15T21:09:26.394Z,84.34
2018-12-15T21:11:55.257Z,84.73
2018-12-15T21:14:23.669Z,84.45
2018-12-15T21:16:52.318Z,84.57
2018-12-15T21:19:20.813Z,84.65
2018-12-15T21:21:49.745Z,84.43
2018-12-15T21:24:18.747Z,84.45
2018-12-15T21:26:47.363Z,84.94
2018-12-15T21:29:15.791Z,84.77
2018-12-15T21:31:44.294Z,85.05
2018-12-15T21:34:13.220Z,85.00
2018-12-15T21:36:41.645Z,84.40
2018-12-15T21:39:10.256Z,84.50
2018-12-15T21:41:39.090Z,85.17
2018-12-15T21:44:07.524Z,84.75
2018-12-15T21:46:35.995Z,84.74
2018-12-15T21:49:04.646Z,85.15
2018-12-15T21:51:33.102Z,84.67
2018-12-15T21:54:02.119Z,84.84
2018-12-15T21:56:30.804Z,85.28
2018-12-15T21:58:59.342Z,85.12
2018-12-15T22:01:27.800Z,84.99
2018-12-15T22:03:56.433Z,84.94
2018-12-15T22:06:24.866Z,84.97
2018-12-15T22:08:53.519Z,84.75
2018-12-15T22:11:22.190Z,85.16
2018-12-15T22:13:50.589Z,84.75
2018-12-15T22:16:19.212Z,85.10
2018-12-15T22:18:47.838Z,85.34
2018-12-15T22:21:16.315Z,85.17
2018-12-15T22:23:45.337Z,85.36
2018-12-15T22:26:13.982Z,85.19
2018-12-15T22:28:42.700Z,85.43
2018-12-15T22:31:11.838Z,85.02
2018-12-15T22:33:40.412Z,85.20
2018-12-15T22:36:09.515Z,85.24
2018-12-15T22:38:38.049Z,85.01
2018-12-15T22:41:06.670Z,85.60
2018-12-15T22:43:35.271Z,85.26
2018-12-15T22:46:03.832Z,85.34
2018-12-15T22:48:32.565Z,85.12
2018-12-15T22:51:01.041Z,85.25
2018-12-15T22:53:30.445Z,85.52
2018-12-15T22:55:58.962Z,85.55
2018-12-15T22:58:27.612Z,85.17
2018-12-15T23:01:01.619Z,85.13
2018-12-15T23:03:30.105Z,85.57
2018-12-15T23:05:58.567Z,85.23
2018-12-15T23:08:27.535Z,85.58
2018-12-15T23:10:55.983Z,85.32
2018-12-15T23:13:24.598Z,85.81
2018-12-15T23:15:53.193Z,85.38
2018-12-15T23:18:21.609Z,85.62
2018-12-15T23:20:50.251Z,85.38
2018-12-15T23:23:18.905Z,85.92
2018-12-15T23:25:47.296Z,85.76
2018-12-15T23:28:15.675Z,85.36
2018-12-15T23:30:44.467Z,85.78
2018-12-15T23:33:12.948Z,85.87
2018-12-15T23:35:41.366Z,85.47
2018-12-15T23:38:10.222Z,85.95
2018-12-15T23:40:38.654Z,85.75
2018-12-15T23:43:07.093Z,85.65
2018-12-15T23:45:36.033Z,85.76
2018-12-15T23:48:04.576Z,85.87
2018-12-15T23:50:32.983Z,85.44
2018-12-15T23:53:01.960Z,85.97
2018-12-15T23:55:30.357Z,85.91
2018-12-15T23:57:58.774Z,85.90
